x

Capers Nearshore (cap 2) (41029) Weather Station

11:08am - Thu 29th Sep 2016 All times are EDT. -4 hours from GMT.

  • Wind
    11mph, 16mph gusts
  • Sea Temp 81°f
  • Air Temp 80°f
  • Sea Pressure 1015.4mb
  • Capers Nearshore (cap 2)
  • Capers Nearshore (cap 2)

More Historic Weather Station data

Upgrade to MSW Pro to gain access to the past 30 days of data for over 8000 Wavebouys and Weather Stations around the globe.

Join Pro

Comparision Forecast

View Surf forecast
   
Thu 09/29 11:08am 11 16 mph 1015.4mb 81f 80f
10:08am 11 16 mph 1015.2mb 81f 80f
9:08am 11 16 mph 1014.9mb 81f 80f
8:08am 13 18 mph 1013.8mb 81f 80f
7:08am 13 18 mph 1013.5mb 81f 80f
6:08am 13 18 mph 1013.4mb 81f 81f
5:08am 13 18 mph 1013.2mb 81f 81f
4:08am 16 20 mph 1012.9mb 81f 81f
3:08am 18 25 mph 1013mb 81f 81f
2:08am 18 25 mph 1013.8mb 81f 81f
1:08am 18 25 mph 1014.3mb 81f 81f
12:08am 18 22 mph 1014.7mb 81f 81f
Wed 09/28 11:08pm 18 22 mph 1014.9mb 81f 81f
10:08pm 16 20 mph 1014.7mb 81f 82f
9:08pm 16 20 mph 1014.5mb 81f 82f
8:08pm 16 22 mph 1013.8mb 82f 81f
7:08pm 16 20 mph 1013.4mb 82f 81f
6:08pm 16 20 mph 1013.1mb 82f 82f
5:08pm 13 18 mph 1013.2mb 82f 82f
4:08pm 11 18 mph 1013.4mb 82f 82f
3:08pm 13 18 mph 1014.1mb 82f 82f
2:08pm 13 18 mph 1014.5mb 82f 81f
1:08pm 11 16 mph 1014.9mb 81f 81f
12:08pm 11 16 mph 1014.9mb 81f 81f
11:08am 11 16 mph 1015mb 81f 80f
10:08am 11 13 mph 1014.8mb 81f 80f
9:08am 9 13 mph 1014.2mb 81f 80f
8:08am 9 11 mph 1013.7mb 81f 80f
7:08am 9 11 mph 1013.5mb 81f 79f
6:08am 7 9 mph 1012.9mb 81f 79f
5:08am 7 9 mph 1013.1mb 81f 79f
4:08am 7
mph
1012.8mb 81f 79f
3:08am 7 11 mph 1012.9mb 81f 80f
2:08am 7 9 mph 1013.1mb 81f 79f
1:08am 7 9 mph 1013.1mb 81f 79f
12:08am 7 9 mph 1012.9mb 81f 79f
Tue 09/27 11:08pm 4 7 mph 1013.3mb 81f 79f
10:08pm 4 7 mph 1012.9mb 81f 80f
9:08pm 4 7 mph 1012.4mb 82f 80f
8:08pm 7 9 mph 1011.8mb 82f 79f
7:08pm 7 9 mph 1011.7mb 82f 79f
6:08pm 7 9 mph 1011.6mb 82f 80f
5:08pm 7 11 mph 1011.4mb 83f 80f
4:08pm 7 11 mph 1011.6mb 82f 79f
3:08pm 7 11 mph 1011.9mb 82f 79f
2:08pm 4 7 mph 1012.7mb 82f 79f
1:08pm 4 9 mph 1013.4mb 81f 79f
12:08pm 9 11 mph 1013.7mb 81f 78f
11:08am 7 9 mph 1013.9mb 81f 78f
10:08am 7 11 mph 1014.3mb 81f 77f
9:08am 7 11 mph 1014mb 81f 76f
8:08am 4 9 mph 1013.7mb 81f 75f
7:08am 4 9 mph 1013.9mb 81f 75f
6:08am 9 13 mph 1013.6mb 81f 78f
5:08am 11 13 mph 1013.6mb 81f 76f
4:08am 11 16 mph 1013.3mb 81f 76f
3:08am 11 13 mph 1013.7mb 81f 77f
2:08am 7 9 mph 1014.6mb 81f 79f
1:08am 7 11 mph 1015.2mb 81f 79f
12:08am 11 16 mph 1015.4mb 81f 79f
Mon 09/26 11:08pm 11 16 mph 1015.8mb 81f 79f
10:08pm 11 16 mph 1015.9mb 81f 79f
9:08pm 7 11 mph 1016.7mb 81f 79f
8:08pm 11 16 mph 1016.2mb 81f 79f
7:08pm 9 13 mph 1015.8mb 81f 78f
6:08pm 13 22 mph 1015.3mb 81f 80f
5:08pm 9 13 mph 1015.3mb 81f 79f
4:08pm 9 13 mph 1016.1mb 81f 78f
3:08pm 11 18 mph 1016.5mb 81f 77f
2:08pm 2 7 mph 1017.3mb 81f 79f
1:08pm 7 11 mph 1017.8mb 81f 79f
12:08pm 11 16 mph 1018.3mb 81f 78f
11:08am 13 18 mph 1018.3mb 81f 81f
10:08am 11 18 mph 1018.3mb 81f 80f
9:08am 11 16 mph 1018mb 81f 79f
8:08am 13 20 mph 1017.6mb 81f 80f
7:08am 9 16 mph 1017.3mb 81f 79f
6:08am 16 22 mph 1016.1mb 81f 80f
5:08am 18 25 mph 1016.7mb 81f 80f
4:08am 18 25 mph 1016.9mb 81f 80f
3:08am 18 25 mph 1017.3mb 81f 80f
2:08am 20 27 mph 1017.7mb 81f 80f
1:08am 20 25 mph 1018mb 81f 80f
12:08am 18 25 mph 1017.7mb 81f 80f
Sun 09/25 11:08pm 18 25 mph 1018.1mb 82f 80f
10:08pm 16 22 mph 1018.2mb 81f 81f
9:08pm 18 22 mph 1017.9mb 81f 81f
8:08pm 16 20 mph 1017.4mb 81f 80f
7:08pm 16 20 mph 1017.1mb 81f 80f
6:08pm 18 22 mph 1017mb 82f 80f
5:08pm 18 22 mph 1016.6mb 82f 80f
4:08pm 16 22 mph 1017.2mb 82f 80f